createdAt,value
2023-03-28T00:03:27.628Z,99275.08
2023-03-28T00:08:51.896Z,99273.76
2023-03-28T00:14:15.704Z,99279.69
2023-03-28T00:19:41.860Z,99286.23
2023-03-28T00:25:07.464Z,99284.38
2023-03-28T00:30:31.785Z,99284.81
2023-03-28T00:35:57.058Z,99276.65
2023-03-28T00:41:22.370Z,99279.21
2023-03-28T00:46:46.704Z,99278.77
2023-03-28T00:52:15.947Z,99275.48
2023-03-28T00:57:42.301Z,99278.62
2023-03-28T01:03:07.112Z,99275.84
2023-03-28T01:08:34.510Z,99267.21
2023-03-28T01:14:02.522Z,99269.67
2023-03-28T01:19:32.738Z,99270.36
2023-03-28T01:25:09.858Z,99269.73
2023-03-28T01:30:53.889Z,99259.08
2023-03-28T01:37:09.924Z,99250.60
2023-03-28T01:42:48.450Z,99256.66
2023-03-28T01:48:23.932Z,99258.33
2023-03-28T01:53:57.906Z,99263.87
2023-03-28T01:59:33.671Z,99266.01
2023-03-28T02:05:19.771Z,99266.50
2023-03-28T02:10:46.794Z,99272.41
2023-03-28T02:16:39.009Z,99258.98
2023-03-28T02:22:36.878Z,99264.34
2023-03-28T02:28:23.554Z,99280.35
2023-03-28T02:34:10.701Z,99285.39
2023-03-28T02:40:10.189Z,99281.83
2023-03-28T02:45:51.360Z,99302.05
2023-03-28T02:51:25.240Z,99299.30
2023-03-28T02:57:03.004Z,99310.80
2023-03-28T03:02:35.601Z,99341.27
2023-03-28T03:08:00.724Z,99347.23
2023-03-28T03:13:25.013Z,99355.73
2023-03-28T03:18:49.249Z,99350.18
2023-03-28T03:24:14.665Z,99367.66
2023-03-28T03:29:40.003Z,99375.28
2023-03-28T03:35:07.990Z,99399.46
2023-03-28T03:40:33.051Z,99409.16
2023-03-28T03:45:58.154Z,99412.55
2023-03-28T03:51:23.569Z,99418.80
2023-03-28T03:56:51.121Z,99424.27
2023-03-28T04:02:15.323Z,99432.95
2023-03-28T04:08:06.167Z,99429.61
2023-03-28T04:13:36.258Z,99433.33
2023-03-28T04:19:01.501Z,99434.56
2023-03-28T04:24:26.068Z,99442.48
2023-03-28T04:30:10.275Z,99457.05
2023-03-28T04:36:06.198Z,99461.98
2023-03-28T04:41:33.476Z,99467.73
2023-03-28T04:47:01.569Z,99463.40
2023-03-28T04:52:27.473Z,99469.74
2023-03-28T04:57:52.020Z,99482.56
2023-03-28T05:03:25.184Z,99487.68
2023-03-28T05:08:59.645Z,99492.17
2023-03-28T05:14:24.754Z,99499.85
2023-03-28T05:19:55.417Z,99516.37
2023-03-28T05:25:23.292Z,99520.81
2023-03-28T05:30:47.864Z,99531.58
2023-03-28T05:36:13.266Z,99539.11
2023-03-28T05:41:38.590Z,99547.97
2023-03-28T05:47:02.738Z,99556.20
2023-03-28T05:52:28.544Z,99562.25
2023-03-28T05:57:53.290Z,99575.30
2023-03-28T06:03:17.886Z,99585.73
2023-03-28T06:08:42.753Z,99589.39
2023-03-28T06:14:08.451Z,99605.16
2023-03-28T06:19:32.214Z,99611.55
2023-03-28T06:24:59.153Z,99614.44
2023-03-28T06:30:25.337Z,99614.65
2023-03-28T06:35:50.068Z,99631.84
2023-03-28T06:41:14.016Z,99643.46
2023-03-28T06:46:38.045Z,99657.62
2023-03-28T06:52:01.996Z,99667.86
2023-03-28T06:57:27.823Z,99677.91
2023-03-28T07:03:03.178Z,99686.69
2023-03-28T07:08:27.776Z,99692.15
2023-03-28T07:13:52.261Z,99697.86
2023-03-28T07:19:16.889Z,99706.98
2023-03-28T07:24:42.863Z,99718.45
2023-03-28T07:30:12.584Z,99721.21
2023-03-28T07:35:40.746Z,99720.70
2023-03-28T07:41:08.385Z,99729.67
2023-03-28T07:46:33.498Z,99737.46
2023-03-28T07:51:58.939Z,99742.70
2023-03-28T07:57:22.973Z,99745.03
2023-03-28T08:02:51.853Z,99751.10
2023-03-28T08:08:17.042Z,99764.89
2023-03-28T08:13:41.561Z,99777.19
2023-03-28T08:19:14.929Z,99772.46
2023-03-28T08:24:58.123Z,99768.45
2023-03-28T08:30:22.331Z,99773.83
2023-03-28T08:35:53.079Z,99787.43
2023-03-28T08:41:41.163Z,99786.42
2023-03-28T08:47:23.760Z,99796.88
2023-03-28T08:52:48.460Z,99804.80
2023-03-28T08:58:24.067Z,99811.77
2023-03-28T09:03:50.405Z,99809.58
2023-03-28T09:09:41.686Z,99825.38
2023-03-28T09:15:52.133Z,99828.19
2023-03-28T09:21:41.153Z,99823.83
2023-03-28T09:27:25.767Z,99836.13
2023-03-28T09:32:55.967Z,99856.14
2023-03-28T09:38:24.681Z,99867.61
2023-03-28T09:43:59.268Z,99866.46
2023-03-28T09:49:32.434Z,99856.71
2023-03-28T09:55:01.306Z,99857.36
2023-03-28T10:00:25.638Z,99858.20
2023-03-28T10:06:25.940Z,99868.67
2023-03-28T10:12:00.245Z,99875.73
2023-03-28T10:17:35.390Z,99865.20
2023-03-28T10:23:03.323Z,99872.30
2023-03-28T10:28:36.418Z,99883.61
2023-03-28T10:34:05.221Z,99883.77
2023-03-28T10:40:00.181Z,99886.82
2023-03-28T10:45:51.730Z,99898.27
2023-03-28T10:51:44.211Z,99913.48
2023-03-28T10:57:19.489Z,99906.11
2023-03-28T11:02:53.449Z,99904.51
2023-03-28T11:08:39.675Z,99916.08
2023-03-28T11:14:41.746Z,99959.56
2023-03-28T11:20:28.731Z,99958.88
2023-03-28T11:26:08.971Z,99956.27
2023-03-28T11:32:30.332Z,99944.62
2023-03-28T11:38:22.560Z,99940.66
2023-03-28T11:43:56.453Z,99936.61
2023-03-28T11:49:29.869Z,99957.02
2023-03-28T11:55:11.932Z,99964.71
2023-03-28T12:01:00.880Z,99962.73
2023-03-28T12:06:52.384Z,99964.48
2023-03-28T12:13:08.707Z,99966.15
2023-03-28T12:18:48.924Z,99941.77
2023-03-28T12:24:43.571Z,99933.02
2023-03-28T12:30:21.593Z,99959.01
2023-03-28T12:36:08.113Z,99963.23
2023-03-28T12:41:40.576Z,99973.92
2023-03-28T12:47:17.196Z,99978.88
2023-03-28T12:52:45.698Z,99997.50
2023-03-28T12:58:34.520Z,99996.64
2023-03-28T13:04:55.951Z,99985.02
2023-03-28T13:10:35.243Z,99981.27
2023-03-28T13:16:48.178Z,99988.18
2023-03-28T13:22:32.579Z,99991.58
2023-03-28T13:28:01.024Z,99981.52
2023-03-28T13:33:29.378Z,99983.59
2023-03-28T13:39:08.026Z,100003.48
2023-03-28T13:44:43.745Z,100026.33
2023-03-28T13:50:26.952Z,100025.48
2023-03-28T13:56:18.959Z,100026.61
2023-03-28T14:02:04.875Z,100034.21
2023-03-28T14:07:31.222Z,100047.64
2023-03-28T14:13:01.041Z,100035.39
2023-03-28T14:18:36.219Z,100039.56
2023-03-28T14:24:05.144Z,100036.07
2023-03-28T14:29:29.567Z,100031.27
2023-03-28T14:34:56.221Z,100032.40
2023-03-28T14:40:24.105Z,100030.73
2023-03-28T14:45:52.995Z,100034.49
2023-03-28T14:51:17.866Z,100037.77
2023-03-28T14:56:43.856Z,100032.91
2023-03-28T15:02:17.847Z,100028.91
2023-03-28T15:07:43.136Z,100028.50
2023-03-28T15:13:30.178Z,100034.23
2023-03-28T15:19:07.861Z,100030.82
2023-03-28T15:24:33.251Z,100029.84
2023-03-28T15:30:04.016Z,100029.30
2023-03-28T15:35:34.554Z,100036.31
2023-03-28T15:41:18.453Z,100036.11
2023-03-28T15:46:42.536Z,100033.85
2023-03-28T15:52:20.008Z,100033.28
2023-03-28T15:57:47.381Z,100038.83
2023-03-28T16:03:21.717Z,100038.59
2023-03-28T16:08:48.829Z,100037.45
2023-03-28T16:14:18.960Z,100048.45
2023-03-28T16:20:02.495Z,100053.02
2023-03-28T16:25:28.218Z,100053.47
2023-03-28T16:30:53.693Z,100057.06
2023-03-28T16:36:18.295Z,100060.17
2023-03-28T16:41:42.604Z,100066.98
2023-03-28T16:47:06.972Z,100068.02
2023-03-28T16:52:31.004Z,100068.03
2023-03-28T16:57:54.879Z,100068.77
2023-03-28T17:03:27.264Z,100071.03
2023-03-28T17:08:53.618Z,100081.40
2023-03-28T17:14:19.296Z,100088.67
2023-03-28T17:19:43.549Z,100094.90
2023-03-28T17:25:09.083Z,100100.05
2023-03-28T17:30:33.288Z,100102.14
2023-03-28T17:35:59.517Z,100104.78
2023-03-28T17:41:25.857Z,100104.14
2023-03-28T17:46:50.270Z,100107.57
2023-03-28T17:52:17.613Z,100110.58
2023-03-28T17:57:41.880Z,100116.38
2023-03-28T18:03:06.294Z,100120.31
2023-03-28T18:08:39.111Z,100124.80
2023-03-28T18:14:04.005Z,100127.79
2023-03-28T18:19:28.329Z,100131.20
2023-03-28T18:24:52.015Z,100133.09
2023-03-28T18:30:16.609Z,100136.19
2023-03-28T18:35:41.738Z,100137.39
2023-03-28T18:41:22.280Z,100141.10
2023-03-28T18:46:55.127Z,100138.10
2023-03-28T18:52:19.963Z,100139.34
2023-03-28T18:57:43.918Z,100141.77
2023-03-28T19:03:11.253Z,100137.11
2023-03-28T19:15:25.764Z,100130.54
2023-03-28T19:20:51.489Z,100124.76
2023-03-28T19:26:16.136Z,100124.67
2023-03-28T19:31:40.650Z,100114.15
2023-03-28T19:37:05.125Z,100119.20
2023-03-28T19:43:10.124Z,100124.70
2023-03-28T19:48:36.340Z,100119.93
2023-03-28T19:54:01.387Z,100116.16
2023-03-28T19:59:25.613Z,100112.16
2023-03-28T20:04:49.710Z,100113.74
2023-03-28T20:10:14.178Z,100108.94
2023-03-28T20:15:41.713Z,100114.58
2023-03-28T20:21:09.725Z,100114.73
2023-03-28T20:26:34.567Z,100118.83
2023-03-28T20:31:58.979Z,100117.84
2023-03-28T20:37:24.197Z,100119.83
2023-03-28T20:42:47.666Z,100120.92
2023-03-28T20:48:16.473Z,100122.01
2023-03-28T20:53:42.673Z,100121.95
2023-03-28T20:59:07.147Z,100121.89
2023-03-28T21:04:32.097Z,100119.44
2023-03-28T21:09:56.172Z,100124.65
2023-03-28T21:15:20.323Z,100121.50
2023-03-28T21:20:45.546Z,100121.11
2023-03-28T21:26:13.752Z,100118.30
2023-03-28T21:31:38.562Z,100120.25
2023-03-28T21:37:04.715Z,100117.38
2023-03-28T21:42:28.989Z,100117.77
2023-03-28T21:47:53.516Z,100113.61
2023-03-28T21:53:17.694Z,100111.91
2023-03-28T21:58:42.955Z,100107.80
2023-03-28T22:04:07.083Z,100106.70
2023-03-28T22:09:31.328Z,100110.81
2023-03-28T22:14:55.205Z,100111.48
2023-03-28T22:20:19.772Z,100109.02
2023-03-28T22:25:43.758Z,100102.88
2023-03-28T22:31:10.118Z,100099.88
2023-03-28T22:36:35.066Z,100095.48
2023-03-28T22:41:59.497Z,100086.64
2023-03-28T22:47:30.627Z,100081.52
2023-03-28T22:52:54.465Z,100070.80
2023-03-28T22:58:19.737Z,100068.16
2023-03-28T23:03:45.081Z,100067.02
2023-03-28T23:09:10.239Z,100065.10
2023-03-28T23:14:34.018Z,100060.88
2023-03-28T23:19:57.579Z,100062.30
2023-03-28T23:25:22.580Z,100058.97
2023-03-28T23:30:46.735Z,100055.67
2023-03-28T23:36:14.515Z,100049.13
2023-03-28T23:41:39.063Z,100050.55
2023-03-28T23:47:03.301Z,100051.67
2023-03-28T23:52:27.369Z,100053.27
2023-03-28T23:57:54.333Z,100045.90
